Time;durP1;ratioP1;P1;durP2;ratioP2;P2;SDS_P1;SDS_P2;PMS_P1;PMS_P2;Temp;Humidity;BMP_temperature;BMP_pressure;BME280_temperature;BME280_humidity;BME280_pressure;Samples;Min_cycle;Max_cycle;Signal;HPM_P1;HPM_P2
2022/06/30 00:00:44;;;;;;;2.50;1.30;;;;;;;;;;4982571;28;20030;-84
2022/06/30 00:03:10;;;;;;;3.55;1.45;;;;;;;;;;4982837;28;20116;-84
2022/06/30 00:05:36;;;;;;;7.95;1.95;;;;;;;;;;4999041;28;20064;-83
2022/06/30 00:08:03;;;;;;;3.80;1.65;;;;;;;;;;5015190;28;20411;-84
2022/06/30 00:10:29;;;;;;;3.40;1.77;;;;;;;;;;4999063;28;20108;-83
2022/06/30 00:12:56;;;;;;;4.50;1.50;;;;;;;;;;5015658;28;20151;-84
2022/06/30 00:15:21;;;;;;;3.55;2.05;;;;;;;;;;4998515;28;20123;-83
2022/06/30 00:17:47;;;;;;;4.30;1.67;;;;;;;;;;4982607;28;20078;-84
2022/06/30 00:20:13;;;;;;;2.70;1.48;;;;;;;;;;4997927;28;20042;-84
2022/06/30 00:22:39;;;;;;;2.05;1.27;;;;;;;;;;5031625;28;20041;-84
2022/06/30 00:25:05;;;;;;;2.15;1.13;;;;;;;;;;4998455;28;20037;-83
2022/06/30 00:27:30;;;;;;;4.13;1.70;;;;;;;;;;4998598;28;20403;-83
2022/06/30 00:29:56;;;;;;;3.95;2.17;;;;;;;;;;4981832;28;20087;-84
2022/06/30 00:32:21;;;;;;;5.40;1.70;;;;;;;;;;4998315;28;20037;-83
2022/06/30 00:34:47;;;;;;;3.88;1.88;;;;;;;;;;4998325;28;20038;-84
2022/06/30 00:37:13;;;;;;;3.25;1.45;;;;;;;;;;4998299;28;20045;-83
2022/06/30 00:39:39;;;;;;;3.50;1.92;;;;;;;;;;4998391;28;20420;-83
2022/06/30 00:42:05;;;;;;;2.33;1.30;;;;;;;;;;5014505;28;20034;-84
2022/06/30 00:44:32;;;;;;;3.45;1.45;;;;;;;;;;4994919;28;20104;-84
2022/06/30 00:46:57;;;;;;;2.45;1.20;;;;;;;;;;5011000;28;20389;-84
2022/06/30 00:49:24;;;;;;;1.60;0.90;;;;;;;;;;5017715;28;20029;-83
2022/06/30 00:51:49;;;;;;;2.67;1.13;;;;;;;;;;5034076;28;20037;-83
2022/06/30 00:54:15;;;;;;;3.25;1.40;;;;;;;;;;5017778;28;20115;-84
2022/06/30 00:56:45;;;;;;;2.97;1.15;;;;;;;;;;5040625;28;20099;-83
2022/06/30 00:59:12;;;;;;;3.78;1.42;;;;;;;;;;4977795;28;20046;-83
2022/06/30 01:01:39;;;;;;;2.42;1.27;;;;;;;;;;5026222;28;20450;-84
2022/06/30 01:04:05;;;;;;;2.50;1.20;;;;;;;;;;4994544;28;20500;-84
2022/06/30 01:06:31;;;;;;;3.17;1.52;;;;;;;;;;5027417;28;20057;-83
2022/06/30 01:08:58;;;;;;;2.22;1.27;;;;;;;;;;5010793;28;20037;-84
2022/06/30 01:14:07;;;;;;;3.00;1.20;;;;;;;;;;5026715;28;20033;-83
2022/06/30 01:16:32;;;;;;;2.70;1.25;;;;;;;;;;5026927;28;20045;-84
2022/06/30 01:18:58;;;;;;;3.03;1.10;;;;;;;;;;5027041;28;20067;-83
2022/06/30 01:21:26;;;;;;;3.30;1.75;;;;;;;;;;5020767;28;20037;-83
2022/06/30 01:23:52;;;;;;;3.75;1.20;;;;;;;;;;5027337;28;20141;-82
2022/06/30 01:26:18;;;;;;;3.30;1.35;;;;;;;;;;4994374;28;20042;-83
2022/06/30 01:28:43;;;;;;;4.78;1.75;;;;;;;;;;4993806;28;20436;-83
2022/06/30 01:31:09;;;;;;;2.35;1.20;;;;;;;;;;4995529;28;20099;-83
2022/06/30 01:33:34;;;;;;;2.55;1.17;;;;;;;;;;4998386;28;20400;-83
2022/06/30 01:36:00;;;;;;;2.45;1.00;;;;;;;;;;5014514;28;20779;-83
2022/06/30 01:38:25;;;;;;;2.28;1.08;;;;;;;;;;4998409;28;20462;-83
2022/06/30 01:40:51;;;;;;;3.25;1.30;;;;;;;;;;4998717;28;20045;-83
2022/06/30 01:43:18;;;;;;;2.92;1.48;;;;;;;;;;4998181;28;20412;-83
2022/06/30 01:45:44;;;;;;;2.85;1.42;;;;;;;;;;5001173;28;20037;-83
2022/06/30 01:48:09;;;;;;;2.92;1.10;;;;;;;;;;5001630;28;20512;-83
2022/06/30 01:50:35;;;;;;;2.22;1.45;;;;;;;;;;5014694;28;20034;-83
2022/06/30 01:53:01;;;;;;;2.67;1.20;;;;;;;;;;5030844;28;20049;-84
2022/06/30 01:55:26;;;;;;;2.05;1.25;;;;;;;;;;5031194;28;20084;-83
2022/06/30 01:57:52;;;;;;;2.92;1.23;;;;;;;;;;5034149;28;20524;-83
2022/06/30 02:00:20;;;;;;;3.17;1.30;;;;;;;;;;5014643;28;20038;-83
2022/06/30 02:02:45;;;;;;;1.77;1.17;;;;;;;;;;5014254;28;20033;-84
2022/06/30 02:05:11;;;;;;;2.05;1.15;;;;;;;;;;5030632;28;20164;-84
2022/06/30 02:07:37;;;;;;;2.17;1.27;;;;;;;;;;5014201;28;20104;-84
2022/06/30 02:10:04;;;;;;;2.60;1.30;;;;;;;;;;5014273;28;20038;-83
2022/06/30 02:12:47;;;;;;;2.80;1.20;;;;;;;;;;5013687;28;20068;-83
2022/06/30 02:15:24;;;;;;;3.38;1.27;;;;;;;;;;5032604;28;20041;-83
2022/06/30 02:17:51;;;;;;;2.08;1.00;;;;;;;;;;5014755;28;20062;-84
2022/06/30 02:20:21;;;;;;;2.50;1.50;;;;;;;;;;5017421;28;20040;-83
2022/06/30 02:22:47;;;;;;;3.58;1.20;;;;;;;;;;5034016;28;20380;-84
2022/06/30 02:25:12;;;;;;;2.13;1.33;;;;;;;;;;4984687;28;20056;-83
2022/06/30 02:27:37;;;;;;;2.38;1.17;;;;;;;;;;4984305;28;20404;-84
2022/06/30 02:30:06;;;;;;;2.53;1.30;;;;;;;;;;4984471;28;20056;-84
2022/06/30 02:32:31;;;;;;;6.97;1.90;;;;;;;;;;4984698;28;20029;-83
2022/06/30 02:34:57;;;;;;;1.85;1.33;;;;;;;;;;5016978;28;20459;-83
2022/06/30 02:37:22;;;;;;;2.42;1.20;;;;;;;;;;5000506;28;20037;-83
2022/06/30 02:39:48;;;;;;;2.70;1.05;;;;;;;;;;5016481;28;20128;-83
2022/06/30 02:42:13;;;;;;;3.22;1.30;;;;;;;;;;5000037;28;20429;-83
2022/06/30 02:44:38;;;;;;;3.72;1.30;;;;;;;;;;4996678;28;20037;-83
2022/06/30 02:47:04;;;;;;;2.55;1.30;;;;;;;;;;4997067;28;20455;-83
2022/06/30 02:49:30;;;;;;;4.93;1.05;;;;;;;;;;5030556;28;20034;-83
2022/06/30 02:51:56;;;;;;;3.03;1.35;;;;;;;;;;5030105;28;20049;-82
2022/06/30 02:54:21;;;;;;;3.13;1.10;;;;;;;;;;5013147;28;20042;-83
2022/06/30 02:56:49;;;;;;;2.65;1.25;;;;;;;;;;5000739;28;20373;-83
2022/06/30 02:59:16;;;;;;;1.98;1.33;;;;;;;;;;5013318;28;20046;-83
2022/06/30 03:01:41;;;;;;;2.20;1.00;;;;;;;;;;5013130;28;20038;-83
2022/06/30 03:04:08;;;;;;;2.70;1.20;;;;;;;;;;5029412;28;20052;-83
2022/06/30 03:06:33;;;;;;;3.20;1.13;;;;;;;;;;5029555;28;20041;-83
2022/06/30 03:08:59;;;;;;;3.53;1.45;;;;;;;;;;5012789;28;20042;-83
2022/06/30 03:11:24;;;;;;;2.15;1.40;;;;;;;;;;5012780;28;20030;-83
2022/06/30 03:13:50;;;;;;;2.47;1.17;;;;;;;;;;5012601;28;20136;-83
2022/06/30 03:16:17;;;;;;;3.35;1.17;;;;;;;;;;4996481;28;20394;-84
2022/06/30 03:18:42;;;;;;;1.92;1.17;;;;;;;;;;5029910;28;20044;-83
2022/06/30 03:21:08;;;;;;;3.28;1.27;;;;;;;;;;5034471;28;20033;-83
2022/06/30 03:23:35;;;;;;;2.25;1.30;;;;;;;;;;4994649;28;20450;-84
2022/06/30 03:26:02;;;;;;;2.35;1.30;;;;;;;;;;5049090;28;20029;-82
2022/06/30 03:28:27;;;;;;;2.50;1.35;;;;;;;;;;5032202;28;20050;-83
2022/06/30 03:30:55;;;;;;;2.67;1.42;;;;;;;;;;5032358;28;20103;-83
2022/06/30 03:33:21;;;;;;;2.40;1.27;;;;;;;;;;5015837;28;20120;-83
2022/06/30 03:35:48;;;;;;;2.63;1.50;;;;;;;;;;5032420;28;20122;-82
2022/06/30 03:38:13;;;;;;;1.95;1.27;;;;;;;;;;5048815;28;20442;-83
2022/06/30 03:40:40;;;;;;;1.88;0.90;;;;;;;;;;5032344;28;20030;-82
2022/06/30 03:43:06;;;;;;;3.92;1.20;;;;;;;;;;5032053;28;20042;-83
2022/06/30 03:45:34;;;;;;;3.30;1.75;;;;;;;;;;5012525;28;20061;-84
2022/06/30 03:48:00;;;;;;;2.10;1.25;;;;;;;;;;4979832;28;20050;-83
2022/06/30 03:50:26;;;;;;;2.08;1.38;;;;;;;;;;5023783;28;20053;-83
2022/06/30 03:52:52;;;;;;;2.88;1.25;;;;;;;;;;4982878;28;20121;-83
2022/06/30 03:55:17;;;;;;;2.50;1.20;;;;;;;;;;5031126;28;20030;-83
2022/06/30 03:57:43;;;;;;;3.10;1.10;;;;;;;;;;4995243;28;20125;-83
2022/06/30 04:00:09;;;;;;;2.33;1.10;;;;;;;;;;5011543;28;20065;-83
2022/06/30 04:02:34;;;;;;;1.75;0.85;;;;;;;;;;4995900;28;20484;-83
2022/06/30 04:04:59;;;;;;;2.15;1.17;;;;;;;;;;5028254;28;20125;-83
2022/06/30 04:07:25;;;;;;;1.75;0.98;;;;;;;;;;5027862;28;20038;-83
2022/06/30 04:09:50;;;;;;;1.48;0.90;;;;;;;;;;5011783;28;20121;-83
2022/06/30 04:12:16;;;;;;;1.40;0.88;;;;;;;;;;5011602;28;20042;-83
2022/06/30 04:14:42;;;;;;;2.92;1.13;;;;;;;;;;4995322;28;20041;-83
2022/06/30 04:17:08;;;;;;;3.65;1.30;;;;;;;;;;4995495;28;20096;-83
2022/06/30 04:19:35;;;;;;;1.92;1.20;;;;;;;;;;5011734;28;20034;-83
2022/06/30 04:22:00;;;;;;;2.03;1.00;;;;;;;;;;5029070;28;20038;-83
2022/06/30 04:24:26;;;;;;;4.22;1.35;;;;;;;;;;5031492;28;20071;-82
2022/06/30 04:26:52;;;;;;;3.38;1.30;;;;;;;;;;4982120;28;20026;-83
2022/06/30 04:29:18;;;;;;;2.55;1.00;;;;;;;;;;4982274;28;20435;-82
2022/06/30 04:34:48;;;;;;;2.13;1.00;;;;;;;;;;4993685;28;20076;-83
2022/06/30 04:37:15;;;;;;;3.38;1.15;;;;;;;;;;5010148;28;20062;-83
2022/06/30 04:39:41;;;;;;;2.35;1.02;;;;;;;;;;5014150;28;20132;-82
2022/06/30 04:42:06;;;;;;;2.30;1.13;;;;;;;;;;4998092;28;20041;-83
2022/06/30 04:44:32;;;;;;;4.45;1.15;;;;;;;;;;4994964;28;20099;-83
2022/06/30 04:46:58;;;;;;;2.75;1.35;;;;;;;;;;4978811;28;20125;-83
2022/06/30 04:49:23;;;;;;;2.20;1.50;;;;;;;;;;4994577;28;20037;-83
2022/06/30 04:51:50;;;;;;;2.30;1.38;;;;;;;;;;5010743;28;20428;-83
2022/06/30 04:54:16;;;;;;;2.83;1.70;;;;;;;;;;5011381;28;20042;-83
2022/06/30 04:56:41;;;;;;;2.45;1.35;;;;;;;;;;5010750;28;20040;-83
2022/06/30 04:59:08;;;;;;;2.95;1.70;;;;;;;;;;5027421;28;20046;-83
2022/06/30 05:01:33;;;;;;;3.85;1.55;;;;;;;;;;5011099;28;20033;-83
2022/06/30 05:03:59;;;;;;;2.53;1.50;;;;;;;;;;5010812;28;20042;-84
2022/06/30 05:06:24;;;;;;;3.03;1.35;;;;;;;;;;5027149;28;20057;-83
2022/06/30 05:08:51;;;;;;;3.05;1.60;;;;;;;;;;5011423;28;20448;-83
2022/06/30 05:11:16;;;;;;;3.13;1.25;;;;;;;;;;5011149;28;20033;-84
2022/06/30 05:13:42;;;;;;;2.95;1.60;;;;;;;;;;4994793;28;20045;-83
2022/06/30 05:16:08;;;;;;;2.40;1.00;;;;;;;;;;4994608;28;20531;-83
2022/06/30 05:18:35;;;;;;;2.03;1.10;;;;;;;;;;5027338;28;20041;-83
2022/06/30 05:21:00;;;;;;;2.10;1.27;;;;;;;;;;5013768;28;20502;-83
2022/06/30 05:23:28;;;;;;;3.33;1.25;;;;;;;;;;5011017;28;20026;-83
2022/06/30 05:28:40;;;;;;;3.75;1.40;;;;;;;;;;5026877;28;20033;-83
2022/06/30 05:31:05;;;;;;;4.63;1.35;;;;;;;;;;5027286;28;20042;-83
2022/06/30 05:33:32;;;;;;;3.53;1.35;;;;;;;;;;5027306;28;20401;-83
2022/06/30 05:35:58;;;;;;;2.22;0.95;;;;;;;;;;5026949;28;20041;-83
2022/06/30 05:38:25;;;;;;;4.22;1.50;;;;;;;;;;4994569;28;20440;-83
2022/06/30 05:40:51;;;;;;;1.90;1.00;;;;;;;;;;5026917;28;20092;-83
2022/06/30 05:43:19;;;;;;;3.45;1.05;;;;;;;;;;5027105;28;20045;-83
2022/06/30 05:45:46;;;;;;;6.13;1.35;;;;;;;;;;5039043;28;20046;-83
2022/06/30 05:48:12;;;;;;;4.13;1.23;;;;;;;;;;5010858;28;20497;-83
2022/06/30 05:50:37;;;;;;;3.15;1.23;;;;;;;;;;5030601;28;20104;-83
2022/06/30 05:53:08;;;;;;;2.70;1.08;;;;;;;;;;5027086;28;20488;-89
2022/06/30 05:55:34;;;;;;;2.47;0.90;;;;;;;;;;5027623;28;20492;-83
2022/06/30 05:58:06;;;;;;;3.95;1.25;;;;;;;;;;5010581;28;20049;-85
2022/06/30 06:00:32;;;;;;;2.85;0.95;;;;;;;;;;5011859;28;20088;-84
2022/06/30 06:02:57;;;;;;;3.30;1.20;;;;;;;;;;4994200;28;20030;-84
2022/06/30 06:05:23;;;;;;;2.67;0.95;;;;;;;;;;5010560;28;20042;-83
2022/06/30 06:07:52;;;;;;;2.67;0.82;;;;;;;;;;5011579;28;20129;-84
2022/06/30 06:10:17;;;;;;;3.00;1.40;;;;;;;;;;5027021;28;20038;-84
2022/06/30 06:12:44;;;;;;;3.10;0.90;;;;;;;;;;4994995;28;20056;-85
2022/06/30 06:15:12;;;;;;;4.45;1.23;;;;;;;;;;5027050;28;20481;-84
2022/06/30 06:17:41;;;;;;;4.97;1.05;;;;;;;;;;5011058;28;20570;-82
2022/06/30 06:20:10;;;;;;;1.55;0.70;;;;;;;;;;5014769;28;20556;-90
2022/06/30 06:22:39;;;;;;;4.38;1.30;;;;;;;;;;5015479;28;20034;-89
2022/06/30 06:25:05;;;;;;;2.65;0.85;;;;;;;;;;5015102;28;20044;-91
2022/06/30 06:27:31;;;;;;;2.22;0.93;;;;;;;;;;5014798;28;20030;-90
2022/06/30 06:29:57;;;;;;;2.83;0.80;;;;;;;;;;5031526;28;20041;-88
2022/06/30 06:32:26;;;;;;;5.32;2.88;;;;;;;;;;5031444;28;20038;-90
2022/06/30 06:34:53;;;;;;;5.50;3.22;;;;;;;;;;4998799;28;20123;-88
2022/06/30 06:37:21;;;;;;;9.77;4.03;;;;;;;;;;5031464;28;20037;-87
2022/06/30 06:39:49;;;;;;;7.15;3.83;;;;;;;;;;5031455;28;20033;-89
2022/06/30 06:42:18;;;;;;;7.30;2.92;;;;;;;;;;5015178;28;20040;-88
2022/06/30 06:44:44;;;;;;;10.63;3.25;;;;;;;;;;5031265;28;20124;-87
2022/06/30 06:47:11;;;;;;;8.77;3.72;;;;;;;;;;5014532;28;20129;-89
2022/06/30 06:49:37;;;;;;;5.95;2.65;;;;;;;;;;5024975;28;20072;-89
2022/06/30 06:52:04;;;;;;;5.95;3.25;;;;;;;;;;5037641;28;20029;-89
2022/06/30 06:54:30;;;;;;;6.63;2.72;;;;;;;;;;5037831;28;20036;-89
2022/06/30 06:56:55;;;;;;;6.25;3.17;;;;;;;;;;5037897;28;20421;-90
2022/06/30 06:59:24;;;;;;;6.78;3.47;;;;;;;;;;5037469;28;20443;-89
2022/06/30 07:01:53;;;;;;;7.32;3.75;;;;;;;;;;5037588;28;20044;-90
2022/06/30 07:04:20;;;;;;;6.50;3.13;;;;;;;;;;5037971;28;20407;-90
2022/06/30 07:06:48;;;;;;;5.43;2.97;;;;;;;;;;5037399;28;20392;-90
2022/06/30 07:09:17;;;;;;;7.18;3.20;;;;;;;;;;5021172;28;20040;-90
2022/06/30 07:11:48;;;;;;;5.53;3.22;;;;;;;;;;5037673;28;20040;-89
2022/06/30 07:14:13;;;;;;;7.75;3.72;;;;;;;;;;5037397;28;20037;-90
2022/06/30 07:16:41;;;;;;;7.40;3.72;;;;;;;;;;5037472;28;20097;-90
2022/06/30 07:19:07;;;;;;;7.20;3.03;;;;;;;;;;5037244;28;20461;-86
2022/06/30 07:21:36;;;;;;;8.30;3.83;;;;;;;;;;5020655;28;20119;-90
2022/06/30 07:24:01;;;;;;;6.60;3.88;;;;;;;;;;5004738;28;20036;-89
2022/06/30 07:26:28;;;;;;;6.43;2.95;;;;;;;;;;5004124;28;20051;-89
2022/06/30 07:28:53;;;;;;;6.40;2.42;;;;;;;;;;5004073;28;20032;-92
2022/06/30 07:31:23;;;;;;;4.68;3.10;;;;;;;;;;5004081;28;20099;-90
2022/06/30 07:33:52;;;;;;;4.35;2.22;;;;;;;;;;5004378;28;20120;-91
2022/06/30 07:36:22;;;;;;;5.57;2.28;;;;;;;;;;5004287;28;20116;-90
2022/06/30 07:38:50;;;;;;;4.00;1.45;;;;;;;;;;5004400;28;20384;-90
2022/06/30 07:41:19;;;;;;;6.82;1.63;;;;;;;;;;5003989;28;20037;-92
2022/06/30 07:43:48;;;;;;;4.45;1.25;;;;;;;;;;5004613;28;20120;-92
2022/06/30 07:46:14;;;;;;;6.72;1.40;;;;;;;;;;5003772;28;20029;-92
2022/06/30 07:48:42;;;;;;;4.18;1.20;;;;;;;;;;5020510;28;20041;-92
2022/06/30 07:51:07;;;;;;;3.58;1.20;;;;;;;;;;5002661;28;20033;-92
2022/06/30 07:53:33;;;;;;;3.30;1.25;;;;;;;;;;4984161;28;20030;-91
2022/06/30 07:55:58;;;;;;;3.38;0.73;;;;;;;;;;4999987;28;20112;-92
2022/06/30 07:58:23;;;;;;;3.95;1.02;;;;;;;;;;4983711;28;20090;-92
2022/06/30 08:00:49;;;;;;;2.40;0.80;;;;;;;;;;5015514;28;20142;-92
2022/06/30 08:03:14;;;;;;;5.80;1.35;;;;;;;;;;4983031;28;20033;-91
2022/06/30 08:05:40;;;;;;;2.33;1.10;;;;;;;;;;5015373;28;20033;-92
2022/06/30 08:08:06;;;;;;;1.92;0.80;;;;;;;;;;5032386;28;20043;-92
2022/06/30 08:10:32;;;;;;;2.72;1.25;;;;;;;;;;5016561;28;20041;-92
2022/06/30 08:12:57;;;;;;;3.33;0.93;;;;;;;;;;4984073;28;20048;-92
2022/06/30 08:15:23;;;;;;;3.13;1.17;;;;;;;;;;5015924;28;20038;-91
2022/06/30 08:17:48;;;;;;;4.28;1.30;;;;;;;;;;4983807;28;20048;-92
2022/06/30 08:20:14;;;;;;;3.67;0.90;;;;;;;;;;5019303;28;20059;-92
2022/06/30 08:22:40;;;;;;;2.00;0.82;;;;;;;;;;5018131;28;20499;-92
2022/06/30 08:25:06;;;;;;;2.53;0.70;;;;;;;;;;5032416;28;20026;-92
2022/06/30 08:27:32;;;;;;;2.97;0.90;;;;;;;;;;5032676;28;20411;-92
2022/06/30 08:29:57;;;;;;;2.20;1.17;;;;;;;;;;5015565;28;20037;-92
2022/06/30 08:32:23;;;;;;;2.42;1.10;;;;;;;;;;5032305;28;20091;-92
2022/06/30 08:34:48;;;;;;;2.08;0.90;;;;;;;;;;5048951;28;20031;-92
2022/06/30 08:37:14;;;;;;;1.67;0.80;;;;;;;;;;5015755;28;20076;-92
2022/06/30 08:42:25;;;;;;;3.53;0.98;;;;;;;;;;5050699;28;20407;-93
2022/06/30 08:47:34;;;;;;;5.65;1.05;;;;;;;;;;5051140;28;20492;-92
2022/06/30 08:49:59;;;;;;;1.65;0.90;;;;;;;;;;5015420;28;20124;-92
2022/06/30 08:52:25;;;;;;;2.15;0.70;;;;;;;;;;4999028;28;20069;-92
2022/06/30 08:54:51;;;;;;;1.58;0.70;;;;;;;;;;4999082;28;20041;-92
2022/06/30 08:57:17;;;;;;;2.08;0.80;;;;;;;;;;4982929;28;20079;-93
2022/06/30 08:59:42;;;;;;;3.25;1.40;;;;;;;;;;4998636;28;20037;-92
2022/06/30 09:02:08;;;;;;;2.75;0.88;;;;;;;;;;4983487;28;20037;-91
2022/06/30 09:04:33;;;;;;;2.47;0.77;;;;;;;;;;4982838;28;20060;-92
2022/06/30 09:06:59;;;;;;;6.68;1.40;;;;;;;;;;4999229;28;20108;-91
2022/06/30 09:09:24;;;;;;;2.40;1.00;;;;;;;;;;4998888;28;20045;-93
2022/06/30 09:11:54;;;;;;;3.95;1.13;;;;;;;;;;4982458;28;20515;-91
2022/06/30 09:14:40;;;;;;;4.28;1.00;;;;;;;;;;4998746;28;20025;-92
2022/06/30 09:17:26;;;;;;;3.25;0.98;;;;;;;;;;4982670;28;20029;-92
2022/06/30 09:20:12;;;;;;;3.63;1.00;;;;;;;;;;4983967;28;20061;-92
2022/06/30 09:22:39;;;;;;;2.00;0.80;;;;;;;;;;5015774;28;20087;-92
2022/06/30 09:25:12;;;;;;;2.83;0.88;;;;;;;;;;4982749;28;20037;-92
2022/06/30 09:27:38;;;;;;;2.58;0.50;;;;;;;;;;4982372;28;20109;-92
2022/06/30 09:30:09;;;;;;;2.78;0.85;;;;;;;;;;4983512;28;20037;-93
2022/06/30 09:32:52;;;;;;;3.10;0.70;;;;;;;;;;4998911;28;20041;-93
2022/06/30 09:35:25;;;;;;;4.15;1.02;;;;;;;;;;4983507;28;20026;-92
2022/06/30 09:38:13;;;;;;;1.90;0.73;;;;;;;;;;4983509;28;20033;-92
2022/06/30 09:41:01;;;;;;;1.77;0.57;;;;;;;;;;4983530;28;20087;-91
2022/06/30 09:43:36;;;;;;;3.25;1.20;;;;;;;;;;4986064;28;20045;-90
2022/06/30 09:46:02;;;;;;;3.28;1.30;;;;;;;;;;4979330;28;20037;-91
2022/06/30 09:48:31;;;;;;;5.45;2.40;;;;;;;;;;4963440;28;20041;-92
2022/06/30 09:51:02;;;;;;;5.10;2.75;;;;;;;;;;4976058;28;20069;-92
2022/06/30 09:53:28;;;;;;;9.37;4.47;;;;;;;;;;5014905;28;20650;-92
2022/06/30 09:55:57;;;;;;;9.85;6.25;;;;;;;;;;5015363;28;20383;-92
2022/06/30 09:58:32;;;;;;;14.30;7.85;;;;;;;;;;5002810;28;20021;-92
2022/06/30 10:00:59;;;;;;;13.07;7.80;;;;;;;;;;5035400;28;20049;-91
2022/06/30 10:03:27;;;;;;;12.52;7.57;;;;;;;;;;5002954;28;20061;-92
2022/06/30 10:06:12;;;;;;;15.98;7.88;;;;;;;;;;4986646;28;20507;-91
2022/06/30 10:08:37;;;;;;;10.70;6.20;;;;;;;;;;5003051;28;20029;-92
2022/06/30 10:11:03;;;;;;;9.05;5.68;;;;;;;;;;5001709;28;20119;-93
2022/06/30 10:13:28;;;;;;;11.77;6.50;;;;;;;;;;4985850;28;20029;-92
2022/06/30 10:15:55;;;;;;;12.23;5.82;;;;;;;;;;4985533;28;20045;-92
2022/06/30 10:18:25;;;;;;;10.65;6.22;;;;;;;;;;4985916;28;20033;-92
2022/06/30 10:20:51;;;;;;;12.73;5.43;;;;;;;;;;4999025;28;20026;-93
2022/06/30 10:23:23;;;;;;;10.63;5.47;;;;;;;;;;5001536;28;20083;-92
2022/06/30 10:25:51;;;;;;;7.32;4.00;;;;;;;;;;5014828;28;20030;-92
2022/06/30 10:28:36;;;;;;;10.43;4.97;;;;;;;;;;4982165;28;20129;-92
2022/06/30 10:31:15;;;;;;;10.82;4.80;;;;;;;;;;5014738;28;20042;-93
2022/06/30 10:33:56;;;;;;;10.48;4.00;;;;;;;;;;4998543;28;20038;-93
2022/06/30 10:36:26;;;;;;;7.15;3.35;;;;;;;;;;5014888;28;20057;-92
2022/06/30 10:39:00;;;;;;;8.23;3.65;;;;;;;;;;5014104;28;20543;-92
2022/06/30 10:41:26;;;;;;;8.93;3.78;;;;;;;;;;5014792;28;20064;-91
2022/06/30 10:44:04;;;;;;;9.02;2.97;;;;;;;;;;5031471;28;20030;-92
2022/06/30 10:46:36;;;;;;;7.80;3.40;;;;;;;;;;5034202;28;20033;-92
2022/06/30 10:49:09;;;;;;;5.82;2.92;;;;;;;;;;5018126;28;20034;-92
2022/06/30 10:51:35;;;;;;;4.85;2.35;;;;;;;;;;5017865;28;20538;-92
2022/06/30 10:54:02;;;;;;;6.35;2.88;;;;;;;;;;4984731;28;20140;-92
2022/06/30 10:56:49;;;;;;;4.15;2.22;;;;;;;;;;4998146;28;20026;-92
2022/06/30 10:59:14;;;;;;;5.47;2.25;;;;;;;;;;4997843;28;20041;-92
2022/06/30 11:02:12;;;;;;;5.55;1.65;;;;;;;;;;5031134;28;20076;-91
2022/06/30 11:04:44;;;;;;;3.70;1.80;;;;;;;;;;4996913;28;20026;-92
2022/06/30 11:07:12;;;;;;;4.47;1.88;;;;;;;;;;5030440;28;20026;-92
2022/06/30 11:09:43;;;;;;;4.03;1.63;;;;;;;;;;5030372;28;20025;-92
2022/06/30 11:12:09;;;;;;;4.93;1.70;;;;;;;;;;4997887;28;20587;-92
2022/06/30 11:14:34;;;;;;;3.80;1.92;;;;;;;;;;5030259;28;20042;-92
2022/06/30 11:16:59;;;;;;;4.40;1.33;;;;;;;;;;5013875;28;20038;-92
2022/06/30 11:19:32;;;;;;;4.55;1.65;;;;;;;;;;4997360;28;20599;-92
2022/06/30 11:21:58;;;;;;;2.58;1.05;;;;;;;;;;5044218;28;20132;-92
2022/06/30 11:24:23;;;;;;;3.10;1.17;;;;;;;;;;5028560;28;20033;-92
2022/06/30 11:29:32;;;;;;;3.08;1.20;;;;;;;;;;5019294;28;20408;-91
2022/06/30 11:31:59;;;;;;;3.17;1.30;;;;;;;;;;5000693;28;20061;-92
2022/06/30 11:34:24;;;;;;;3.05;1.17;;;;;;;;;;4984259;28;20099;-91
2022/06/30 11:36:50;;;;;;;2.10;0.90;;;;;;;;;;5000482;28;20443;-90
2022/06/30 11:39:20;;;;;;;6.63;1.15;;;;;;;;;;5000295;28;20037;-92
2022/06/30 11:41:56;;;;;;;4.50;1.25;;;;;;;;;;4985385;28;20033;-91
2022/06/30 11:44:33;;;;;;;3.03;0.98;;;;;;;;;;4998627;28;20048;-91
2022/06/30 11:47:00;;;;;;;2.08;1.00;;;;;;;;;;4996904;28;20510;-92
2022/06/30 11:49:48;;;;;;;1.85;0.80;;;;;;;;;;5000467;28;20569;-91
2022/06/30 11:52:17;;;;;;;3.58;0.95;;;;;;;;;;5013035;28;20049;-92
2022/06/30 11:54:59;;;;;;;2.97;1.00;;;;;;;;;;5066336;28;20118;-93
2022/06/30 11:57:25;;;;;;;2.47;0.77;;;;;;;;;;5029946;28;20048;-92
2022/06/30 11:59:53;;;;;;;2.60;0.80;;;;;;;;;;5028830;28;20471;-91
2022/06/30 12:02:20;;;;;;;1.92;0.90;;;;;;;;;;4996907;28;20045;-92
2022/06/30 12:04:50;;;;;;;2.78;0.73;;;;;;;;;;5013300;28;20111;-93
2022/06/30 12:07:16;;;;;;;3.20;0.95;;;;;;;;;;4996568;28;20041;-92
2022/06/30 12:09:45;;;;;;;1.90;0.80;;;;;;;;;;4996364;28;20034;-92
2022/06/30 12:12:11;;;;;;;2.25;0.65;;;;;;;;;;5013540;28;20036;-93
2022/06/30 12:14:38;;;;;;;2.72;0.90;;;;;;;;;;4996585;28;20506;-92
2022/06/30 12:17:05;;;;;;;2.25;0.90;;;;;;;;;;4995675;28;20460;-92
2022/06/30 12:19:30;;;;;;;1.38;0.70;;;;;;;;;;4996516;28;20068;-92
2022/06/30 12:21:56;;;;;;;2.30;1.13;;;;;;;;;;5047256;28;20128;-92
2022/06/30 12:24:22;;;;;;;3.15;1.00;;;;;;;;;;4988229;28;20123;-92
2022/06/30 12:26:55;;;;;;;3.17;0.90;;;;;;;;;;5049345;28;20033;-92
2022/06/30 12:29:21;;;;;;;2.60;0.82;;;;;;;;;;5032416;28;20073;-92
2022/06/30 12:32:00;;;;;;;2.20;0.55;;;;;;;;;;5015740;28;20045;-92
2022/06/30 12:34:26;;;;;;;2.83;0.70;;;;;;;;;;5015628;28;20136;-91
2022/06/30 12:36:51;;;;;;;1.90;0.70;;;;;;;;;;5032517;28;20116;-93
2022/06/30 12:39:17;;;;;;;1.58;0.60;;;;;;;;;;5032177;28;20030;-92
2022/06/30 12:41:43;;;;;;;2.63;0.50;;;;;;;;;;5015836;28;20037;-93
2022/06/30 12:44:08;;;;;;;2.40;0.80;;;;;;;;;;5032360;28;20476;-91
2022/06/30 12:46:38;;;;;;;2.13;0.80;;;;;;;;;;5015588;28;20025;-93
2022/06/30 12:49:04;;;;;;;1.90;0.80;;;;;;;;;;4999265;28;20091;-92
2022/06/30 12:51:32;;;;;;;2.58;0.82;;;;;;;;;;4999358;28;20029;-92
2022/06/30 12:54:03;;;;;;;3.25;0.90;;;;;;;;;;5015564;28;20037;-93
2022/06/30 12:56:29;;;;;;;2.25;0.80;;;;;;;;;;4980331;28;20029;-93
2022/06/30 12:58:59;;;;;;;3.38;1.02;;;;;;;;;;5011946;28;20042;-93
2022/06/30 13:01:29;;;;;;;2.05;0.80;;;;;;;;;;5045048;28;20042;-93
2022/06/30 13:04:05;;;;;;;1.77;0.80;;;;;;;;;;5011801;28;20038;-92
2022/06/30 13:06:32;;;;;;;2.03;1.00;;;;;;;;;;5011933;28;20064;-92
2022/06/30 13:08:58;;;;;;;4.32;1.40;;;;;;;;;;5011908;28;20033;-92
2022/06/30 13:11:27;;;;;;;3.47;1.33;;;;;;;;;;5012021;28;20065;-92
2022/06/30 13:13:53;;;;;;;2.40;1.10;;;;;;;;;;5011853;28;20125;-93
2022/06/30 13:16:19;;;;;;;2.40;0.93;;;;;;;;;;5012024;28;20030;-93
2022/06/30 13:18:46;;;;;;;2.15;1.00;;;;;;;;;;4995596;28;20049;-93
2022/06/30 13:21:12;;;;;;;2.35;1.10;;;;;;;;;;5012024;28;20041;-92
2022/06/30 13:23:37;;;;;;;2.03;0.93;;;;;;;;;;5017332;28;20491;-92
2022/06/30 13:26:03;;;;;;;1.83;0.95;;;;;;;;;;4963455;28;20029;-92
2022/06/30 13:28:28;;;;;;;2.97;1.00;;;;;;;;;;4978774;28;20045;-92
2022/06/30 13:30:53;;;;;;;2.92;0.90;;;;;;;;;;4979393;28;20500;-92
2022/06/30 13:33:19;;;;;;;4.30;1.55;;;;;;;;;;4995217;28;20033;-92
2022/06/30 13:35:44;;;;;;;3.42;1.05;;;;;;;;;;5011605;28;20041;-92
2022/06/30 13:38:10;;;;;;;1.55;0.70;;;;;;;;;;4962865;28;20036;-92
2022/06/30 13:40:36;;;;;;;3.05;1.08;;;;;;;;;;4979443;28;20038;-92
2022/06/30 13:43:02;;;;;;;2.30;0.88;;;;;;;;;;5011926;28;20038;-91
2022/06/30 13:45:29;;;;;;;2.10;1.00;;;;;;;;;;5021715;28;20057;-93
2022/06/30 13:47:55;;;;;;;6.18;1.30;;;;;;;;;;4995083;28;20077;-92
2022/06/30 13:50:23;;;;;;;1.92;0.85;;;;;;;;;;5033694;28;20061;-93
2022/06/30 13:52:49;;;;;;;5.57;1.55;;;;;;;;;;5018105;28;20130;-93
2022/06/30 13:55:14;;;;;;;2.92;1.25;;;;;;;;;;5018312;28;20504;-94
2022/06/30 13:57:40;;;;;;;3.67;0.80;;;;;;;;;;5016602;28;20040;-92
2022/06/30 14:00:06;;;;;;;2.22;0.75;;;;;;;;;;5011212;28;20038;-92
2022/06/30 14:02:31;;;;;;;2.78;1.08;;;;;;;;;;5027635;28;20088;-93
2022/06/30 14:04:59;;;;;;;1.30;0.68;;;;;;;;;;5011618;28;20025;-93
2022/06/30 14:07:25;;;;;;;2.95;1.00;;;;;;;;;;5028327;28;20029;-92
2022/06/30 14:09:52;;;;;;;4.72;0.82;;;;;;;;;;5011216;28;20084;-92
2022/06/30 14:12:17;;;;;;;2.50;1.02;;;;;;;;;;4994849;28;20061;-92
2022/06/30 14:14:43;;;;;;;1.80;0.75;;;;;;;;;;5011447;28;20038;-93
2022/06/30 14:17:08;;;;;;;2.80;1.48;;;;;;;;;;4995119;28;20037;-91
2022/06/30 14:19:34;;;;;;;3.90;1.08;;;;;;;;;;5011567;28;20030;-93
2022/06/30 14:21:59;;;;;;;4.50;1.08;;;;;;;;;;5025673;28;20099;-92
2022/06/30 14:24:25;;;;;;;3.50;1.27;;;;;;;;;;5002949;28;20525;-92
2022/06/30 14:26:50;;;;;;;2.72;0.98;;;;;;;;;;4981898;28;20041;-93
2022/06/30 14:29:18;;;;;;;2.53;0.95;;;;;;;;;;4998825;28;20030;-93
2022/06/30 14:31:44;;;;;;;4.00;1.13;;;;;;;;;;4981804;28;20044;-92
2022/06/30 14:34:10;;;;;;;3.15;1.08;;;;;;;;;;4981671;28;20499;-93
2022/06/30 14:36:37;;;;;;;1.75;0.70;;;;;;;;;;4982334;28;20075;-92
2022/06/30 14:39:02;;;;;;;2.08;0.80;;;;;;;;;;4982821;28;20040;-93
2022/06/30 14:44:14;;;;;;;2.20;0.80;;;;;;;;;;4996395;28;20050;-93
2022/06/30 14:46:39;;;;;;;1.67;0.80;;;;;;;;;;5034118;28;20037;-93
2022/06/30 14:49:05;;;;;;;2.10;0.70;;;;;;;;;;5018491;28;20035;-91
2022/06/30 14:51:31;;;;;;;2.42;0.70;;;;;;;;;;5037621;28;20025;-92
2022/06/30 14:53:56;;;;;;;1.63;0.68;;;;;;;;;;5020610;28;20105;-93
2022/06/30 14:56:22;;;;;;;1.20;0.60;;;;;;;;;;5029908;28;20029;-93
2022/06/30 14:58:47;;;;;;;2.13;0.60;;;;;;;;;;5014231;28;20038;-93
2022/06/30 15:01:13;;;;;;;1.90;0.52;;;;;;;;;;5013792;28;20120;-92
2022/06/30 15:03:38;;;;;;;2.92;0.90;;;;;;;;;;4997877;28;20132;-93